sensor_id;sensor_type;location;lat;lon;timestamp;P1;durP1;ratioP1;P2;durP2;ratioP2
16310;SDS011;8264;48.510;8.872;2023-12-28T00:01:59;3.00;;;2.43;;
16310;SDS011;8264;48.510;8.872;2023-12-28T00:04:29;3.80;;;2.77;;
16310;SDS011;8264;48.510;8.872;2023-12-28T00:06:55;5.90;;;3.07;;
16310;SDS011;8264;48.510;8.872;2023-12-28T00:09:25;4.77;;;2.93;;
16310;SDS011;8264;48.510;8.872;2023-12-28T00:11:52;4.63;;;2.83;;
16310;SDS011;8264;48.510;8.872;2023-12-28T00:14:18;4.00;;;2.87;;
16310;SDS011;8264;48.510;8.872;2023-12-28T00:16:49;4.67;;;2.83;;
16310;SDS011;8264;48.510;8.872;2023-12-28T00:19:16;3.93;;;2.50;;
16310;SDS011;8264;48.510;8.872;2023-12-28T00:21:44;3.70;;;2.60;;
16310;SDS011;8264;48.510;8.872;2023-12-28T00:24:11;5.07;;;2.90;;
16310;SDS011;8264;48.510;8.872;2023-12-28T00:26:38;6.50;;;3.30;;
16310;SDS011;8264;48.510;8.872;2023-12-28T00:29:06;4.73;;;3.10;;
16310;SDS011;8264;48.510;8.872;2023-12-28T00:31:33;4.43;;;3.20;;
16310;SDS011;8264;48.510;8.872;2023-12-28T00:34:00;4.77;;;2.43;;
16310;SDS011;8264;48.510;8.872;2023-12-28T00:36:28;3.93;;;2.63;;
16310;SDS011;8264;48.510;8.872;2023-12-28T00:38:57;3.37;;;2.43;;
16310;SDS011;8264;48.510;8.872;2023-12-28T00:41:23;5.17;;;2.77;;
16310;SDS011;8264;48.510;8.872;2023-12-28T00:43:50;5.07;;;2.93;;
16310;SDS011;8264;48.510;8.872;2023-12-28T00:46:17;4.43;;;2.83;;
16310;SDS011;8264;48.510;8.872;2023-12-28T00:48:46;4.53;;;2.73;;
16310;SDS011;8264;48.510;8.872;2023-12-28T00:51:13;3.67;;;2.70;;
16310;SDS011;8264;48.510;8.872;2023-12-28T00:53:40;4.53;;;3.00;;
16310;SDS011;8264;48.510;8.872;2023-12-28T00:56:08;4.23;;;3.10;;
16310;SDS011;8264;48.510;8.872;2023-12-28T00:58:38;3.30;;;2.50;;
16310;SDS011;8264;48.510;8.872;2023-12-28T01:01:05;4.80;;;2.47;;
16310;SDS011;8264;48.510;8.872;2023-12-28T01:03:32;4.97;;;2.50;;
16310;SDS011;8264;48.510;8.872;2023-12-28T01:05:58;4.60;;;2.60;;
16310;SDS011;8264;48.510;8.872;2023-12-28T01:08:27;3.63;;;2.10;;
16310;SDS011;8264;48.510;8.872;2023-12-28T01:10:56;3.47;;;2.23;;
16310;SDS011;8264;48.510;8.872;2023-12-28T01:13:24;2.63;;;2.10;;
16310;SDS011;8264;48.510;8.872;2023-12-28T01:15:50;5.30;;;2.57;;
16310;SDS011;8264;48.510;8.872;2023-12-28T01:18:17;5.30;;;2.50;;
16310;SDS011;8264;48.510;8.872;2023-12-28T01:20:43;3.00;;;2.07;;
16310;SDS011;8264;48.510;8.872;2023-12-28T01:23:12;2.73;;;1.97;;
16310;SDS011;8264;48.510;8.872;2023-12-28T01:25:39;4.53;;;2.57;;
16310;SDS011;8264;48.510;8.872;2023-12-28T01:28:05;3.17;;;2.20;;
16310;SDS011;8264;48.510;8.872;2023-12-28T01:30:33;3.00;;;2.37;;
16310;SDS011;8264;48.510;8.872;2023-12-28T01:33:00;3.30;;;2.20;;
16310;SDS011;8264;48.510;8.872;2023-12-28T01:35:27;4.43;;;2.40;;
16310;SDS011;8264;48.510;8.872;2023-12-28T01:37:54;3.73;;;2.30;;
16310;SDS011;8264;48.510;8.872;2023-12-28T01:40:22;3.17;;;2.37;;
16310;SDS011;8264;48.510;8.872;2023-12-28T01:42:49;2.20;;;2.00;;
16310;SDS011;8264;48.510;8.872;2023-12-28T01:45:16;4.00;;;2.03;;
16310;SDS011;8264;48.510;8.872;2023-12-28T01:47:43;3.63;;;2.53;;
16310;SDS011;8264;48.510;8.872;2023-12-28T01:50:10;2.47;;;2.00;;
16310;SDS011;8264;48.510;8.872;2023-12-28T01:52:37;4.30;;;2.63;;
16310;SDS011;8264;48.510;8.872;2023-12-28T01:55:04;2.70;;;1.93;;
16310;SDS011;8264;48.510;8.872;2023-12-28T01:57:31;3.47;;;2.40;;
16310;SDS011;8264;48.510;8.872;2023-12-28T01:59:58;2.60;;;1.93;;
16310;SDS011;8264;48.510;8.872;2023-12-28T02:02:26;3.53;;;1.83;;
16310;SDS011;8264;48.510;8.872;2023-12-28T02:04:55;4.67;;;2.03;;
16310;SDS011;8264;48.510;8.872;2023-12-28T02:07:22;2.60;;;1.87;;
16310;SDS011;8264;48.510;8.872;2023-12-28T02:09:50;2.67;;;2.00;;
16310;SDS011;8264;48.510;8.872;2023-12-28T02:12:17;3.60;;;2.33;;
16310;SDS011;8264;48.510;8.872;2023-12-28T02:14:44;2.60;;;1.70;;
16310;SDS011;8264;48.510;8.872;2023-12-28T02:17:13;5.00;;;2.03;;
16310;SDS011;8264;48.510;8.872;2023-12-28T02:19:45;2.23;;;1.77;;
16310;SDS011;8264;48.510;8.872;2023-12-28T02:22:15;1.83;;;1.57;;
16310;SDS011;8264;48.510;8.872;2023-12-28T02:25:03;3.20;;;1.80;;
16310;SDS011;8264;48.510;8.872;2023-12-28T02:27:33;2.90;;;1.70;;
16310;SDS011;8264;48.510;8.872;2023-12-28T02:30:02;2.10;;;1.53;;
16310;SDS011;8264;48.510;8.872;2023-12-28T02:32:33;3.03;;;1.80;;
16310;SDS011;8264;48.510;8.872;2023-12-28T02:35:05;2.60;;;1.30;;
16310;SDS011;8264;48.510;8.872;2023-12-28T02:37:35;2.30;;;1.27;;
16310;SDS011;8264;48.510;8.872;2023-12-28T02:40:04;2.03;;;1.60;;
16310;SDS011;8264;48.510;8.872;2023-12-28T02:42:32;2.30;;;1.60;;
16310;SDS011;8264;48.510;8.872;2023-12-28T02:44:59;2.73;;;1.33;;
16310;SDS011;8264;48.510;8.872;2023-12-28T02:47:26;3.00;;;1.17;;
16310;SDS011;8264;48.510;8.872;2023-12-28T02:49:53;2.27;;;1.30;;
16310;SDS011;8264;48.510;8.872;2023-12-28T02:52:24;2.80;;;1.50;;
16310;SDS011;8264;48.510;8.872;2023-12-28T02:54:52;2.30;;;1.40;;
16310;SDS011;8264;48.510;8.872;2023-12-28T02:57:21;2.20;;;1.27;;
16310;SDS011;8264;48.510;8.872;2023-12-28T02:59:47;2.87;;;1.30;;
16310;SDS011;8264;48.510;8.872;2023-12-28T03:02:14;1.93;;;1.50;;
16310;SDS011;8264;48.510;8.872;2023-12-28T03:04:41;1.73;;;1.27;;
16310;SDS011;8264;48.510;8.872;2023-12-28T03:07:14;2.97;;;1.20;;
16310;SDS011;8264;48.510;8.872;2023-12-28T03:09:43;1.70;;;1.30;;
16310;SDS011;8264;48.510;8.872;2023-12-28T03:12:12;2.13;;;1.23;;
16310;SDS011;8264;48.510;8.872;2023-12-28T03:14:42;3.53;;;1.77;;
16310;SDS011;8264;48.510;8.872;2023-12-28T03:17:18;3.80;;;1.50;;
16310;SDS011;8264;48.510;8.872;2023-12-28T03:19:45;2.47;;;1.53;;
16310;SDS011;8264;48.510;8.872;2023-12-28T03:22:18;2.47;;;1.57;;
16310;SDS011;8264;48.510;8.872;2023-12-28T03:24:47;1.80;;;1.30;;
16310;SDS011;8264;48.510;8.872;2023-12-28T03:27:16;2.20;;;1.47;;
16310;SDS011;8264;48.510;8.872;2023-12-28T03:29:47;2.83;;;1.50;;
16310;SDS011;8264;48.510;8.872;2023-12-28T03:32:23;3.97;;;1.40;;
16310;SDS011;8264;48.510;8.872;2023-12-28T03:34:55;1.87;;;1.50;;
16310;SDS011;8264;48.510;8.872;2023-12-28T03:37:26;3.63;;;1.20;;
16310;SDS011;8264;48.510;8.872;2023-12-28T03:39:53;1.83;;;1.03;;
16310;SDS011;8264;48.510;8.872;2023-12-28T03:42:23;2.57;;;1.40;;
16310;SDS011;8264;48.510;8.872;2023-12-28T03:44:51;2.47;;;1.50;;
16310;SDS011;8264;48.510;8.872;2023-12-28T03:47:18;1.93;;;1.30;;
16310;SDS011;8264;48.510;8.872;2023-12-28T03:49:52;1.60;;;1.20;;
16310;SDS011;8264;48.510;8.872;2023-12-28T03:52:22;2.37;;;1.30;;
16310;SDS011;8264;48.510;8.872;2023-12-28T03:54:53;2.07;;;1.40;;
16310;SDS011;8264;48.510;8.872;2023-12-28T03:57:22;2.23;;;1.30;;
16310;SDS011;8264;48.510;8.872;2023-12-28T03:59:53;1.63;;;1.20;;
16310;SDS011;8264;48.510;8.872;2023-12-28T04:02:22;2.23;;;1.40;;
16310;SDS011;8264;48.510;8.872;2023-12-28T04:04:56;2.00;;;1.27;;
16310;SDS011;8264;48.510;8.872;2023-12-28T04:07:24;2.23;;;1.30;;
16310;SDS011;8264;48.510;8.872;2023-12-28T04:09:54;2.97;;;1.70;;
16310;SDS011;8264;48.510;8.872;2023-12-28T04:12:24;2.00;;;1.37;;
16310;SDS011;8264;48.510;8.872;2023-12-28T04:14:57;2.47;;;1.50;;
16310;SDS011;8264;48.510;8.872;2023-12-28T04:17:24;1.30;;;1.13;;
16310;SDS011;8264;48.510;8.872;2023-12-28T04:19:50;2.00;;;1.40;;
16310;SDS011;8264;48.510;8.872;2023-12-28T04:22:24;2.47;;;1.40;;
16310;SDS011;8264;48.510;8.872;2023-12-28T04:24:51;1.37;;;1.20;;
16310;SDS011;8264;48.510;8.872;2023-12-28T04:27:18;4.17;;;1.37;;
16310;SDS011;8264;48.510;8.872;2023-12-28T04:29:51;3.20;;;1.13;;
16310;SDS011;8264;48.510;8.872;2023-12-28T04:32:20;2.30;;;1.30;;
16310;SDS011;8264;48.510;8.872;2023-12-28T04:34:49;1.77;;;1.10;;
16310;SDS011;8264;48.510;8.872;2023-12-28T04:37:17;2.00;;;1.40;;
16310;SDS011;8264;48.510;8.872;2023-12-28T04:39:44;1.53;;;1.13;;
16310;SDS011;8264;48.510;8.872;2023-12-28T04:42:13;2.83;;;1.33;;
16310;SDS011;8264;48.510;8.872;2023-12-28T04:44:41;2.20;;;1.40;;
16310;SDS011;8264;48.510;8.872;2023-12-28T04:47:08;2.00;;;1.50;;
16310;SDS011;8264;48.510;8.872;2023-12-28T04:49:36;3.67;;;1.57;;
16310;SDS011;8264;48.510;8.872;2023-12-28T04:52:05;1.63;;;1.13;;
16310;SDS011;8264;48.510;8.872;2023-12-28T04:54:35;1.90;;;1.27;;
16310;SDS011;8264;48.510;8.872;2023-12-28T04:57:03;2.27;;;1.27;;
16310;SDS011;8264;48.510;8.872;2023-12-28T04:59:33;3.13;;;1.40;;
16310;SDS011;8264;48.510;8.872;2023-12-28T05:02:04;3.67;;;1.30;;
16310;SDS011;8264;48.510;8.872;2023-12-28T05:04:32;1.90;;;1.30;;
16310;SDS011;8264;48.510;8.872;2023-12-28T05:07:03;1.60;;;1.10;;
16310;SDS011;8264;48.510;8.872;2023-12-28T05:09:30;3.40;;;1.20;;
16310;SDS011;8264;48.510;8.872;2023-12-28T05:12:01;1.77;;;1.00;;
16310;SDS011;8264;48.510;8.872;2023-12-28T05:14:32;2.13;;;1.23;;
16310;SDS011;8264;48.510;8.872;2023-12-28T05:17:01;2.17;;;1.13;;
16310;SDS011;8264;48.510;8.872;2023-12-28T05:19:30;1.57;;;1.20;;
16310;SDS011;8264;48.510;8.872;2023-12-28T05:22:06;1.90;;;1.30;;
16310;SDS011;8264;48.510;8.872;2023-12-28T05:24:37;2.23;;;1.00;;
16310;SDS011;8264;48.510;8.872;2023-12-28T05:27:07;2.27;;;1.23;;
16310;SDS011;8264;48.510;8.872;2023-12-28T05:29:34;2.10;;;1.10;;
16310;SDS011;8264;48.510;8.872;2023-12-28T05:32:03;2.20;;;1.27;;
16310;SDS011;8264;48.510;8.872;2023-12-28T05:34:31;2.40;;;1.40;;
16310;SDS011;8264;48.510;8.872;2023-12-28T05:37:01;2.23;;;1.23;;
16310;SDS011;8264;48.510;8.872;2023-12-28T05:39:36;2.50;;;1.33;;
16310;SDS011;8264;48.510;8.872;2023-12-28T05:42:05;2.40;;;1.10;;
16310;SDS011;8264;48.510;8.872;2023-12-28T05:44:34;2.03;;;1.47;;
16310;SDS011;8264;48.510;8.872;2023-12-28T05:47:03;2.80;;;1.30;;
16310;SDS011;8264;48.510;8.872;2023-12-28T05:49:33;2.67;;;1.40;;
16310;SDS011;8264;48.510;8.872;2023-12-28T05:52:02;2.13;;;1.40;;
16310;SDS011;8264;48.510;8.872;2023-12-28T05:54:33;1.87;;;1.40;;
16310;SDS011;8264;48.510;8.872;2023-12-28T05:57:10;2.00;;;1.40;;
16310;SDS011;8264;48.510;8.872;2023-12-28T05:59:42;2.40;;;1.53;;
16310;SDS011;8264;48.510;8.872;2023-12-28T06:02:18;2.77;;;1.40;;
16310;SDS011;8264;48.510;8.872;2023-12-28T06:04:50;3.13;;;1.60;;
16310;SDS011;8264;48.510;8.872;2023-12-28T06:07:17;1.97;;;1.40;;
16310;SDS011;8264;48.510;8.872;2023-12-28T06:09:51;2.10;;;1.30;;
16310;SDS011;8264;48.510;8.872;2023-12-28T06:12:23;1.73;;;1.20;;
16310;SDS011;8264;48.510;8.872;2023-12-28T06:14:53;2.00;;;1.33;;
16310;SDS011;8264;48.510;8.872;2023-12-28T06:17:26;2.23;;;1.47;;
16310;SDS011;8264;48.510;8.872;2023-12-28T06:19:55;2.97;;;2.03;;
16310;SDS011;8264;48.510;8.872;2023-12-28T06:22:27;3.13;;;2.30;;
16310;SDS011;8264;48.510;8.872;2023-12-28T06:24:58;2.07;;;1.60;;
16310;SDS011;8264;48.510;8.872;2023-12-28T06:27:30;2.43;;;1.30;;
16310;SDS011;8264;48.510;8.872;2023-12-28T06:30:03;2.00;;;1.37;;
16310;SDS011;8264;48.510;8.872;2023-12-28T06:32:33;3.23;;;1.43;;
16310;SDS011;8264;48.510;8.872;2023-12-28T06:35:05;2.60;;;1.30;;
16310;SDS011;8264;48.510;8.872;2023-12-28T06:37:34;2.97;;;1.77;;
16310;SDS011;8264;48.510;8.872;2023-12-28T06:40:16;2.07;;;1.40;;
16310;SDS011;8264;48.510;8.872;2023-12-28T06:42:54;1.87;;;1.30;;
16310;SDS011;8264;48.510;8.872;2023-12-28T06:45:23;1.80;;;1.20;;
16310;SDS011;8264;48.510;8.872;2023-12-28T06:47:57;1.43;;;1.20;;
16310;SDS011;8264;48.510;8.872;2023-12-28T06:50:26;2.53;;;1.13;;
16310;SDS011;8264;48.510;8.872;2023-12-28T06:52:57;2.10;;;1.20;;
16310;SDS011;8264;48.510;8.872;2023-12-28T06:55:29;1.60;;;1.10;;
16310;SDS011;8264;48.510;8.872;2023-12-28T06:57:59;3.53;;;1.10;;
16310;SDS011;8264;48.510;8.872;2023-12-28T07:00:33;1.87;;;1.17;;
16310;SDS011;8264;48.510;8.872;2023-12-28T07:03:03;3.30;;;1.20;;
16310;SDS011;8264;48.510;8.872;2023-12-28T07:05:37;3.33;;;1.37;;
16310;SDS011;8264;48.510;8.872;2023-12-28T07:08:06;2.07;;;1.33;;
16310;SDS011;8264;48.510;8.872;2023-12-28T07:10:42;3.30;;;1.40;;
16310;SDS011;8264;48.510;8.872;2023-12-28T07:13:19;3.53;;;1.40;;
16310;SDS011;8264;48.510;8.872;2023-12-28T07:15:52;2.50;;;1.20;;
16310;SDS011;8264;48.510;8.872;2023-12-28T07:18:22;3.00;;;1.23;;
16310;SDS011;8264;48.510;8.872;2023-12-28T07:20:54;3.37;;;1.43;;
16310;SDS011;8264;48.510;8.872;2023-12-28T07:23:25;2.87;;;1.10;;
16310;SDS011;8264;48.510;8.872;2023-12-28T07:25:57;1.80;;;1.20;;
16310;SDS011;8264;48.510;8.872;2023-12-28T07:28:26;2.23;;;1.40;;
16310;SDS011;8264;48.510;8.872;2023-12-28T07:30:56;2.40;;;1.20;;
16310;SDS011;8264;48.510;8.872;2023-12-28T07:33:28;3.73;;;1.40;;
16310;SDS011;8264;48.510;8.872;2023-12-28T07:35:58;2.00;;;1.27;;
16310;SDS011;8264;48.510;8.872;2023-12-28T07:38:32;2.30;;;1.53;;
16310;SDS011;8264;48.510;8.872;2023-12-28T07:41:05;3.90;;;1.80;;
16310;SDS011;8264;48.510;8.872;2023-12-28T07:43:35;4.07;;;3.27;;
16310;SDS011;8264;48.510;8.872;2023-12-28T07:46:09;2.60;;;1.97;;
16310;SDS011;8264;48.510;8.872;2023-12-28T07:48:41;3.53;;;2.00;;
16310;SDS011;8264;48.510;8.872;2023-12-28T07:52:07;4.53;;;1.80;;
16310;SDS011;8264;48.510;8.872;2023-12-28T07:54:26;2.97;;;1.60;;
16310;SDS011;8264;48.510;8.872;2023-12-28T07:56:59;3.13;;;1.50;;
16310;SDS011;8264;48.510;8.872;2023-12-28T07:59:32;3.90;;;1.50;;
16310;SDS011;8264;48.510;8.872;2023-12-28T08:01:59;1.83;;;1.27;;
16310;SDS011;8264;48.510;8.872;2023-12-28T08:04:26;3.00;;;1.37;;
16310;SDS011;8264;48.510;8.872;2023-12-28T08:06:57;4.13;;;1.60;;
16310;SDS011;8264;48.510;8.872;2023-12-28T08:09:23;2.13;;;1.40;;
16310;SDS011;8264;48.510;8.872;2023-12-28T08:11:53;3.50;;;1.40;;
16310;SDS011;8264;48.510;8.872;2023-12-28T08:14:24;4.13;;;1.20;;
16310;SDS011;8264;48.510;8.872;2023-12-28T08:16:51;3.27;;;1.57;;
16310;SDS011;8264;48.510;8.872;2023-12-28T08:19:17;2.37;;;1.30;;
16310;SDS011;8264;48.510;8.872;2023-12-28T08:21:44;3.07;;;1.40;;
16310;SDS011;8264;48.510;8.872;2023-12-28T08:24:10;2.83;;;1.50;;
16310;SDS011;8264;48.510;8.872;2023-12-28T08:26:37;2.00;;;1.30;;
16310;SDS011;8264;48.510;8.872;2023-12-28T08:29:04;2.13;;;1.40;;
16310;SDS011;8264;48.510;8.872;2023-12-28T08:31:32;2.67;;;1.60;;
16310;SDS011;8264;48.510;8.872;2023-12-28T08:33:59;1.90;;;1.60;;
16310;SDS011;8264;48.510;8.872;2023-12-28T08:36:25;3.97;;;2.10;;
16310;SDS011;8264;48.510;8.872;2023-12-28T08:38:52;4.00;;;2.30;;
16310;SDS011;8264;48.510;8.872;2023-12-28T08:41:19;5.40;;;3.20;;
16310;SDS011;8264;48.510;8.872;2023-12-28T08:43:45;4.17;;;2.83;;
16310;SDS011;8264;48.510;8.872;2023-12-28T08:46:12;6.37;;;3.23;;
16310;SDS011;8264;48.510;8.872;2023-12-28T08:48:41;3.57;;;2.30;;
16310;SDS011;8264;48.510;8.872;2023-12-28T08:51:09;4.30;;;1.80;;
16310;SDS011;8264;48.510;8.872;2023-12-28T08:53:35;1.97;;;1.57;;
16310;SDS011;8264;48.510;8.872;2023-12-28T08:56:03;3.63;;;1.50;;
16310;SDS011;8264;48.510;8.872;2023-12-28T08:58:38;4.00;;;1.70;;
16310;SDS011;8264;48.510;8.872;2023-12-28T09:01:04;2.43;;;1.73;;
16310;SDS011;8264;48.510;8.872;2023-12-28T09:03:33;4.50;;;2.23;;
16310;SDS011;8264;48.510;8.872;2023-12-28T09:06:01;3.57;;;1.77;;
16310;SDS011;8264;48.510;8.872;2023-12-28T09:08:27;4.93;;;1.77;;
16310;SDS011;8264;48.510;8.872;2023-12-28T09:10:57;3.13;;;1.73;;
16310;SDS011;8264;48.510;8.872;2023-12-28T09:13:24;3.43;;;1.57;;
16310;SDS011;8264;48.510;8.872;2023-12-28T09:15:50;3.03;;;1.73;;
16310;SDS011;8264;48.510;8.872;2023-12-28T09:18:17;3.03;;;1.30;;
16310;SDS011;8264;48.510;8.872;2023-12-28T09:20:46;1.77;;;1.43;;
16310;SDS011;8264;48.510;8.872;2023-12-28T09:23:16;3.60;;;1.40;;
16310;SDS011;8264;48.510;8.872;2023-12-28T09:25:48;2.00;;;1.43;;
16310;SDS011;8264;48.510;8.872;2023-12-28T09:28:22;3.67;;;1.80;;
16310;SDS011;8264;48.510;8.872;2023-12-28T09:31:13;2.57;;;1.80;;
16310;SDS011;8264;48.510;8.872;2023-12-28T09:33:39;3.40;;;2.50;;
16310;SDS011;8264;48.510;8.872;2023-12-28T09:36:06;5.27;;;2.63;;
16310;SDS011;8264;48.510;8.872;2023-12-28T09:38:39;6.03;;;2.57;;
16310;SDS011;8264;48.510;8.872;2023-12-28T09:41:07;10.23;;;2.20;;
16310;SDS011;8264;48.510;8.872;2023-12-28T09:43:37;4.00;;;1.80;;
16310;SDS011;8264;48.510;8.872;2023-12-28T09:46:07;3.60;;;1.87;;
16310;SDS011;8264;48.510;8.872;2023-12-28T09:48:36;3.63;;;1.80;;
16310;SDS011;8264;48.510;8.872;2023-12-28T09:51:04;3.53;;;1.33;;
16310;SDS011;8264;48.510;8.872;2023-12-28T09:53:30;2.87;;;1.53;;
16310;SDS011;8264;48.510;8.872;2023-12-28T09:55:58;2.50;;;1.53;;
16310;SDS011;8264;48.510;8.872;2023-12-28T09:58:28;2.87;;;1.60;;
16310;SDS011;8264;48.510;8.872;2023-12-28T10:00:56;6.30;;;1.50;;
16310;SDS011;8264;48.510;8.872;2023-12-28T10:06:35;3.13;;;1.60;;
16310;SDS011;8264;48.510;8.872;2023-12-28T10:09:05;2.23;;;1.73;;
16310;SDS011;8264;48.510;8.872;2023-12-28T10:11:39;5.90;;;1.53;;
16310;SDS011;8264;48.510;8.872;2023-12-28T10:14:07;1.87;;;1.07;;
16310;SDS011;8264;48.510;8.872;2023-12-28T10:16:40;1.97;;;1.10;;
16310;SDS011;8264;48.510;8.872;2023-12-28T10:19:07;1.70;;;1.10;;
16310;SDS011;8264;48.510;8.872;2023-12-28T10:21:34;2.50;;;1.40;;
16310;SDS011;8264;48.510;8.872;2023-12-28T10:24:03;2.07;;;1.30;;
16310;SDS011;8264;48.510;8.872;2023-12-28T10:26:31;1.50;;;1.20;;
16310;SDS011;8264;48.510;8.872;2023-12-28T10:29:00;1.63;;;1.20;;
16310;SDS011;8264;48.510;8.872;2023-12-28T10:31:28;1.53;;;1.20;;
16310;SDS011;8264;48.510;8.872;2023-12-28T10:33:57;1.30;;;1.20;;
16310;SDS011;8264;48.510;8.872;2023-12-28T10:36:24;2.90;;;1.10;;
16310;SDS011;8264;48.510;8.872;2023-12-28T10:38:52;2.53;;;1.53;;
16310;SDS011;8264;48.510;8.872;2023-12-28T10:41:19;2.47;;;1.57;;
16310;SDS011;8264;48.510;8.872;2023-12-28T10:43:48;2.37;;;1.37;;
16310;SDS011;8264;48.510;8.872;2023-12-28T10:46:23;1.73;;;1.30;;
16310;SDS011;8264;48.510;8.872;2023-12-28T10:48:53;3.20;;;1.20;;
16310;SDS011;8264;48.510;8.872;2023-12-28T10:51:24;1.43;;;1.17;;
16310;SDS011;8264;48.510;8.872;2023-12-28T10:53:54;3.00;;;1.50;;
16310;SDS011;8264;48.510;8.872;2023-12-28T10:56:28;2.70;;;1.20;;
16310;SDS011;8264;48.510;8.872;2023-12-28T10:59:03;1.97;;;1.50;;
16310;SDS011;8264;48.510;8.872;2023-12-28T11:01:46;1.23;;;1.10;;
16310;SDS011;8264;48.510;8.872;2023-12-28T11:04:16;1.73;;;1.07;;
16310;SDS011;8264;48.510;8.872;2023-12-28T11:06:45;2.10;;;1.00;;
16310;SDS011;8264;48.510;8.872;2023-12-28T11:09:13;1.70;;;1.13;;
16310;SDS011;8264;48.510;8.872;2023-12-28T11:11:40;2.07;;;1.10;;
16310;SDS011;8264;48.510;8.872;2023-12-28T11:14:07;1.97;;;1.20;;
16310;SDS011;8264;48.510;8.872;2023-12-28T11:16:35;2.97;;;1.20;;
16310;SDS011;8264;48.510;8.872;2023-12-28T11:19:06;1.20;;;0.90;;
16310;SDS011;8264;48.510;8.872;2023-12-28T11:21:34;1.23;;;1.10;;
16310;SDS011;8264;48.510;8.872;2023-12-28T11:24:00;1.97;;;1.20;;
16310;SDS011;8264;48.510;8.872;2023-12-28T11:26:27;2.47;;;1.40;;
16310;SDS011;8264;48.510;8.872;2023-12-28T11:28:59;3.53;;;1.40;;
16310;SDS011;8264;48.510;8.872;2023-12-28T11:31:26;1.50;;;1.17;;
16310;SDS011;8264;48.510;8.872;2023-12-28T11:33:53;1.57;;;1.10;;
16310;SDS011;8264;48.510;8.872;2023-12-28T11:36:24;1.37;;;1.00;;
16310;SDS011;8264;48.510;8.872;2023-12-28T11:38:53;3.77;;;1.33;;
16310;SDS011;8264;48.510;8.872;2023-12-28T11:41:24;1.13;;;1.00;;
16310;SDS011;8264;48.510;8.872;2023-12-28T11:43:51;1.10;;;1.00;;
16310;SDS011;8264;48.510;8.872;2023-12-28T11:46:18;1.83;;;1.20;;
16310;SDS011;8264;48.510;8.872;2023-12-28T11:48:45;3.07;;;1.30;;
16310;SDS011;8264;48.510;8.872;2023-12-28T11:51:12;2.50;;;1.43;;
16310;SDS011;8264;48.510;8.872;2023-12-28T11:53:39;2.17;;;1.10;;
16310;SDS011;8264;48.510;8.872;2023-12-28T11:56:07;1.67;;;1.27;;
16310;SDS011;8264;48.510;8.872;2023-12-28T11:58:36;1.37;;;1.27;;
16310;SDS011;8264;48.510;8.872;2023-12-28T12:01:02;1.67;;;1.43;;
16310;SDS011;8264;48.510;8.872;2023-12-28T12:03:29;1.77;;;1.37;;
16310;SDS011;8264;48.510;8.872;2023-12-28T12:05:56;2.57;;;1.60;;
16310;SDS011;8264;48.510;8.872;2023-12-28T12:08:23;1.83;;;1.43;;
16310;SDS011;8264;48.510;8.872;2023-12-28T12:11:00;2.07;;;1.43;;
16310;SDS011;8264;48.510;8.872;2023-12-28T12:13:28;3.70;;;1.43;;
16310;SDS011;8264;48.510;8.872;2023-12-28T12:15:55;3.57;;;1.47;;
16310;SDS011;8264;48.510;8.872;2023-12-28T12:18:22;2.13;;;1.30;;
16310;SDS011;8264;48.510;8.872;2023-12-28T12:20:48;2.87;;;1.30;;
16310;SDS011;8264;48.510;8.872;2023-12-28T12:23:15;1.70;;;1.30;;
16310;SDS011;8264;48.510;8.872;2023-12-28T12:25:42;4.20;;;1.80;;
16310;SDS011;8264;48.510;8.872;2023-12-28T12:28:11;2.33;;;1.47;;
16310;SDS011;8264;48.510;8.872;2023-12-28T12:30:40;5.47;;;1.50;;
16310;SDS011;8264;48.510;8.872;2023-12-28T12:33:06;1.80;;;1.27;;
16310;SDS011;8264;48.510;8.872;2023-12-28T12:35:34;2.23;;;1.30;;
16310;SDS011;8264;48.510;8.872;2023-12-28T12:38:01;2.30;;;1.40;;
16310;SDS011;8264;48.510;8.872;2023-12-28T12:40:28;3.40;;;1.47;;
16310;SDS011;8264;48.510;8.872;2023-12-28T12:42:55;1.63;;;1.50;;
16310;SDS011;8264;48.510;8.872;2023-12-28T12:45:23;3.30;;;1.60;;
16310;SDS011;8264;48.510;8.872;2023-12-28T12:47:50;1.93;;;1.13;;
16310;SDS011;8264;48.510;8.872;2023-12-28T12:50:17;1.83;;;1.30;;
16310;SDS011;8264;48.510;8.872;2023-12-28T12:52:44;2.67;;;1.23;;
16310;SDS011;8264;48.510;8.872;2023-12-28T12:55:11;1.23;;;1.13;;
16310;SDS011;8264;48.510;8.872;2023-12-28T12:57:38;2.37;;;1.50;;
16310;SDS011;8264;48.510;8.872;2023-12-28T13:00:05;2.53;;;1.30;;
16310;SDS011;8264;48.510;8.872;2023-12-28T13:02:36;1.67;;;1.43;;
16310;SDS011;8264;48.510;8.872;2023-12-28T13:05:03;1.90;;;1.50;;
16310;SDS011;8264;48.510;8.872;2023-12-28T13:07:30;2.50;;;1.20;;
16310;SDS011;8264;48.510;8.872;2023-12-28T13:09:57;1.87;;;1.47;;
16310;SDS011;8264;48.510;8.872;2023-12-28T13:12:23;1.73;;;1.40;;
16310;SDS011;8264;48.510;8.872;2023-12-28T13:14:50;2.10;;;1.50;;
16310;SDS011;8264;48.510;8.872;2023-12-28T13:17:17;1.97;;;1.67;;
16310;SDS011;8264;48.510;8.872;2023-12-28T13:19:45;2.93;;;1.60;;
16310;SDS011;8264;48.510;8.872;2023-12-28T13:22:12;1.70;;;1.50;;
16310;SDS011;8264;48.510;8.872;2023-12-28T13:24:38;3.87;;;1.93;;
16310;SDS011;8264;48.510;8.872;2023-12-28T13:27:05;2.47;;;1.50;;
16310;SDS011;8264;48.510;8.872;2023-12-28T13:29:31;3.97;;;1.70;;
16310;SDS011;8264;48.510;8.872;2023-12-28T13:31:58;3.90;;;1.80;;
16310;SDS011;8264;48.510;8.872;2023-12-28T13:34:24;4.30;;;1.60;;
16310;SDS011;8264;48.510;8.872;2023-12-28T13:36:55;3.03;;;1.40;;
16310;SDS011;8264;48.510;8.872;2023-12-28T13:39:21;3.53;;;1.97;;
16310;SDS011;8264;48.510;8.872;2023-12-28T13:41:47;3.07;;;1.97;;
16310;SDS011;8264;48.510;8.872;2023-12-28T13:44:14;2.03;;;1.70;;
16310;SDS011;8264;48.510;8.872;2023-12-28T13:46:40;2.93;;;1.57;;
16310;SDS011;8264;48.510;8.872;2023-12-28T13:49:07;3.33;;;2.10;;
16310;SDS011;8264;48.510;8.872;2023-12-28T13:51:34;3.83;;;1.80;;
16310;SDS011;8264;48.510;8.872;2023-12-28T13:54:02;4.27;;;1.90;;
16310;SDS011;8264;48.510;8.872;2023-12-28T13:56:28;6.77;;;2.10;;
16310;SDS011;8264;48.510;8.872;2023-12-28T13:58:55;3.73;;;2.23;;
16310;SDS011;8264;48.510;8.872;2023-12-28T14:01:21;4.70;;;2.10;;
16310;SDS011;8264;48.510;8.872;2023-12-28T14:03:48;4.27;;;2.23;;
16310;SDS011;8264;48.510;8.872;2023-12-28T14:06:16;3.97;;;2.10;;
16310;SDS011;8264;48.510;8.872;2023-12-28T14:08:44;5.73;;;2.23;;
16310;SDS011;8264;48.510;8.872;2023-12-28T14:11:12;4.43;;;2.23;;
16310;SDS011;8264;48.510;8.872;2023-12-28T14:13:38;4.17;;;2.20;;
16310;SDS011;8264;48.510;8.872;2023-12-28T14:16:05;3.43;;;2.23;;
16310;SDS011;8264;48.510;8.872;2023-12-28T14:18:33;4.87;;;2.10;;
16310;SDS011;8264;48.510;8.872;2023-12-28T14:21:00;7.10;;;2.10;;
16310;SDS011;8264;48.510;8.872;2023-12-28T14:23:26;3.57;;;2.37;;
16310;SDS011;8264;48.510;8.872;2023-12-28T14:25:54;4.90;;;2.27;;
16310;SDS011;8264;48.510;8.872;2023-12-28T14:28:23;3.10;;;2.33;;
16310;SDS011;8264;48.510;8.872;2023-12-28T14:30:51;5.90;;;2.27;;
16310;SDS011;8264;48.510;8.872;2023-12-28T14:33:18;4.60;;;2.40;;
16310;SDS011;8264;48.510;8.872;2023-12-28T14:35:46;2.50;;;2.17;;
16310;SDS011;8264;48.510;8.872;2023-12-28T14:38:13;2.80;;;1.83;;
16310;SDS011;8264;48.510;8.872;2023-12-28T14:40:40;2.00;;;1.80;;
16310;SDS011;8264;48.510;8.872;2023-12-28T14:43:07;3.60;;;2.07;;
16310;SDS011;8264;48.510;8.872;2023-12-28T14:45:38;3.00;;;1.90;;
16310;SDS011;8264;48.510;8.872;2023-12-28T14:48:06;2.10;;;1.50;;
16310;SDS011;8264;48.510;8.872;2023-12-28T14:50:33;2.43;;;1.70;;
16310;SDS011;8264;48.510;8.872;2023-12-28T14:53:00;2.50;;;2.00;;
16310;SDS011;8264;48.510;8.872;2023-12-28T14:55:27;5.77;;;2.10;;
16310;SDS011;8264;48.510;8.872;2023-12-28T14:57:54;3.70;;;2.70;;
16310;SDS011;8264;48.510;8.872;2023-12-28T15:00:21;3.63;;;2.30;;
16310;SDS011;8264;48.510;8.872;2023-12-28T15:02:49;3.83;;;2.33;;
16310;SDS011;8264;48.510;8.872;2023-12-28T15:05:15;3.43;;;2.30;;
16310;SDS011;8264;48.510;8.872;2023-12-28T15:07:42;3.70;;;2.10;;
16310;SDS011;8264;48.510;8.872;2023-12-28T15:10:09;2.93;;;2.00;;
16310;SDS011;8264;48.510;8.872;2023-12-28T15:12:37;2.30;;;1.50;;
16310;SDS011;8264;48.510;8.872;2023-12-28T15:15:04;2.63;;;2.07;;